Terminal Aerodrome Forecast
Issued by NWS Wilmington, NC

Home | Current Version | Previous Version | Text Only | Print | Product List | Glossary On
Versions: 1 2 3 4 5 6 7 8 9 10 11 12 13 14 15 16 17
000
FTUS42 KILM 302330
TAFILM
TAF
KILM 302330Z 3100/3124 12005KT P6SM SCT250
     FM310600 VRB03KT P6SM SCT250
     FM311200 30006KT P6SM VCSH SCT040 BKN150
      TEMPO 3115/3119 4SM SHRA BKN035
     FM311900 22007KT P6SM SCT040 BKN080
      TEMPO 3119/3123 5SM -TSRA BKN040CB=

USA.gov is the U.S. government's official web portal to all federal, state and local government web resources and services.